Time;durP1;ratioP1;P1;durP2;ratioP2;P2;SDS_P1;SDS_P2;PMS_P1;PMS_P2;Temp;Humidity;BMP_temperature;BMP_pressure;BME280_temperature;BME280_humidity;BME280_pressure;Samples;Min_cycle;Max_cycle;Signal;HPM_P1;HPM_P2
2022/04/17 00:00:14;;;;;;;4.63;3.00;;;5.90;73.90;;;;;;5018229;28;20211;-69
2022/04/17 00:02:41;;;;;;;4.73;2.60;;;5.80;74.10;;;;;;5017044;28;20293;-68
2022/04/17 00:05:09;;;;;;;5.13;2.73;;;5.70;74.20;;;;;;5018065;28;20234;-69
2022/04/17 00:07:36;;;;;;;3.33;2.30;;;5.70;74.40;;;;;;5018156;28;20213;-69
2022/04/17 00:10:04;;;;;;;5.40;2.67;;;5.60;75.40;;;;;;5017957;28;20208;-69
2022/04/17 00:12:31;;;;;;;4.03;2.67;;;5.60;74.90;;;;;;5017640;28;20286;-68
2022/04/17 00:15:00;;;;;;;4.13;2.23;;;5.50;74.90;;;;;;5017734;28;21745;-69
2022/04/17 00:17:28;;;;;;;3.77;2.33;;;5.50;74.90;;;;;;5016909;28;20310;-69
2022/04/17 00:19:55;;;;;;;3.33;2.50;;;5.50;75.10;;;;;;5017200;28;20664;-68
2022/04/17 00:22:23;;;;;;;4.43;2.27;;;5.50;75.30;;;;;;5017039;28;20285;-68
2022/04/17 00:24:50;;;;;;;4.40;2.40;;;5.50;75.40;;;;;;5017939;28;20207;-68
2022/04/17 00:27:17;;;;;;;4.43;2.27;;;5.50;75.60;;;;;;5017407;28;20209;-69
2022/04/17 00:29:44;;;;;;;3.07;2.23;;;5.40;75.70;;;;;;5017599;28;20219;-68
2022/04/17 00:32:11;;;;;;;2.97;2.20;;;5.40;75.90;;;;;;5017206;28;20207;-69
2022/04/17 00:34:40;;;;;;;4.70;2.13;;;5.40;76.00;;;;;;5017017;28;20203;-68
2022/04/17 00:37:07;;;;;;;4.23;2.47;;;5.40;76.00;;;;;;5016642;28;20231;-69
2022/04/17 00:39:33;;;;;;;4.17;2.53;;;5.40;76.10;;;;;;5017247;28;20636;-69
2022/04/17 00:42:04;;;;;;;4.03;2.77;;;5.30;76.20;;;;;;5017210;28;20198;-69
2022/04/17 00:44:32;;;;;;;3.50;1.90;;;5.30;76.30;;;;;;5016694;28;20199;-69
2022/04/17 00:46:59;;;;;;;3.70;2.33;;;5.30;76.30;;;;;;5016000;28;20202;-69
2022/04/17 00:49:26;;;;;;;3.83;2.03;;;5.30;76.30;;;;;;5016094;28;20238;-69
2022/04/17 00:51:54;;;;;;;5.43;2.10;;;5.30;76.60;;;;;;5016590;28;20268;-69
2022/04/17 00:54:23;;;;;;;5.13;2.40;;;5.20;76.60;;;;;;5016051;28;20207;-68
2022/04/17 00:56:50;;;;;;;3.53;2.60;;;5.20;76.70;;;;;;5016074;28;20245;-68
2022/04/17 00:59:18;;;;;;;2.30;2.00;;;5.10;76.70;;;;;;5014970;28;20211;-69
2022/04/17 01:01:45;;;;;;;3.67;2.37;;;5.10;77.10;;;;;;5016697;28;20567;-69
2022/04/17 01:04:12;;;;;;;2.17;1.90;;;5.10;77.20;;;;;;5016269;28;20668;-69
2022/04/17 01:06:40;;;;;;;3.23;2.00;;;5.10;77.60;;;;;;5016112;28;20203;-68
2022/04/17 01:09:09;;;;;;;3.53;2.00;;;5.10;77.80;;;;;;5016293;28;20290;-68
2022/04/17 01:11:39;;;;;;;3.60;2.00;;;5.00;77.70;;;;;;5016163;28;20261;-69
2022/04/17 01:14:08;;;;;;;3.90;2.20;;;5.00;77.90;;;;;;5015552;28;20283;-70
2022/04/17 01:16:37;;;;;;;3.37;2.23;;;5.00;78.20;;;;;;5016377;28;20321;-68
2022/04/17 01:19:11;;;;;;;3.63;2.37;;;5.00;78.40;;;;;;5015996;28;20207;-69
2022/04/17 01:21:39;;;;;;;3.50;2.30;;;5.00;78.50;;;;;;5016587;28;20242;-69
2022/04/17 01:26:57;;;;;;;4.53;2.03;;;4.90;79.00;;;;;;5015642;28;20178;-69
2022/04/17 01:29:24;;;;;;;3.30;2.03;;;4.90;79.40;;;;;;5016521;28;20210;-69
2022/04/17 01:31:50;;;;;;;3.87;2.37;;;4.80;79.60;;;;;;5015982;28;20203;-68
2022/04/17 01:34:18;;;;;;;4.37;2.13;;;4.80;79.70;;;;;;5015584;28;20226;-69
2022/04/17 01:36:47;;;;;;;3.20;2.33;;;4.80;80.10;;;;;;5015315;28;20227;-69
2022/04/17 01:39:14;;;;;;;3.90;2.20;;;4.80;80.40;;;;;;5016270;28;20209;-69
2022/04/17 01:41:42;;;;;;;2.73;2.00;;;4.80;80.70;;;;;;5015748;28;20238;-71
2022/04/17 01:44:09;;;;;;;4.93;2.30;;;4.80;80.80;;;;;;5015282;28;20204;-70
2022/04/17 01:46:36;;;;;;;2.50;2.13;;;4.80;81.00;;;;;;5013885;28;20581;-68
2022/04/17 01:49:04;;;;;;;5.50;2.27;;;4.80;81.50;;;;;;5015384;28;20270;-68
2022/04/17 01:51:38;;;;;;;4.13;2.73;;;4.80;81.80;;;;;;5014741;28;20613;-68
2022/04/17 01:54:07;;;;;;;3.23;2.10;;;4.80;81.90;;;;;;5015483;28;20556;-69
2022/04/17 01:56:35;;;;;;;5.43;2.47;;;4.80;82.20;;;;;;5015148;28;20231;-68
2022/04/17 01:59:04;;;;;;;4.43;2.30;;;4.70;82.30;;;;;;5014680;28;20208;-69
2022/04/17 02:01:31;;;;;;;3.97;2.20;;;4.70;82.60;;;;;;5015628;28;20230;-68
2022/04/17 02:03:58;;;;;;;2.43;2.07;;;4.80;83.30;;;;;;5015415;28;20217;-69
2022/04/17 02:06:24;;;;;;;6.43;2.40;;;4.70;83.40;;;;;;5015137;28;20203;-67
2022/04/17 02:08:52;;;;;;;2.97;2.00;;;4.70;83.80;;;;;;5015773;28;20298;-68
2022/04/17 02:11:20;;;;;;;3.00;2.30;;;4.70;84.10;;;;;;5015470;28;20207;-68
2022/04/17 02:13:48;;;;;;;4.33;2.03;;;4.70;84.40;;;;;;5015216;28;20310;-68
2022/04/17 02:16:17;;;;;;;3.27;2.37;;;4.70;84.80;;;;;;5015093;28;20253;-69
2022/04/17 02:18:44;;;;;;;3.03;2.50;;;4.70;85.10;;;;;;5015298;28;20324;-71
2022/04/17 02:21:11;;;;;;;3.67;2.80;;;4.60;85.50;;;;;;5014956;28;20235;-69
2022/04/17 02:23:38;;;;;;;5.37;2.47;;;4.60;85.60;;;;;;5015037;28;20204;-67
2022/04/17 02:26:05;;;;;;;4.33;2.90;;;4.60;86.10;;;;;;5014655;28;20207;-69
2022/04/17 02:28:35;;;;;;;4.93;2.63;;;4.60;86.50;;;;;;5014499;28;20278;-68
2022/04/17 02:31:03;;;;;;;2.67;1.93;;;4.50;87.10;;;;;;5015505;28;20282;-69
2022/04/17 02:33:29;;;;;;;3.33;2.40;;;4.50;87.60;;;;;;5015081;28;20269;-68
2022/04/17 02:35:56;;;;;;;2.87;2.17;;;4.50;88.20;;;;;;5014698;28;20282;-68
2022/04/17 02:38:24;;;;;;;3.93;2.43;;;4.50;88.50;;;;;;5015688;28;20239;-68
2022/04/17 02:40:51;;;;;;;2.43;2.20;;;4.50;89.10;;;;;;5015377;28;20243;-68
2022/04/17 02:43:18;;;;;;;4.67;3.00;;;4.40;89.80;;;;;;5015115;28;20207;-68
2022/04/17 02:45:46;;;;;;;4.60;2.73;;;4.40;90.10;;;;;;5015217;28;20211;-68
2022/04/17 02:48:12;;;;;;;5.27;2.80;;;4.40;90.50;;;;;;5015800;28;20672;-68
2022/04/17 02:50:40;;;;;;;5.37;2.87;;;4.40;90.80;;;;;;5015162;28;20568;-68
2022/04/17 02:53:08;;;;;;;3.13;2.47;;;4.40;91.20;;;;;;5015008;28;20209;-69
2022/04/17 02:55:35;;;;;;;4.00;2.37;;;4.30;91.60;;;;;;5015437;28;20204;-68
2022/04/17 02:58:02;;;;;;;2.97;2.50;;;4.40;91.90;;;;;;5014496;28;20310;-69
2022/04/17 03:00:30;;;;;;;5.83;2.67;;;4.30;92.50;;;;;;5015341;28;20253;-68
2022/04/17 03:05:43;;;;;;;6.00;2.50;;;4.30;92.90;;;;;;5014767;28;20194;-68
2022/04/17 03:08:12;;;;;;;3.67;2.97;;;4.20;93.40;;;;;;5014108;28;20195;-68
2022/04/17 03:10:41;;;;;;;3.93;2.70;;;4.20;93.80;;;;;;5015120;28;20203;-69
2022/04/17 03:13:09;;;;;;;3.17;2.30;;;4.20;94.30;;;;;;5019006;28;20626;-69
2022/04/17 03:15:37;;;;;;;4.53;2.60;;;4.20;94.70;;;;;;5018704;28;20254;-69
2022/04/17 03:18:06;;;;;;;4.30;2.50;;;4.10;95.20;;;;;;5018501;28;20238;-68
2022/04/17 03:20:33;;;;;;;6.00;2.80;;;4.10;96.10;;;;;;5018790;28;20565;-69
2022/04/17 03:23:00;;;;;;;3.03;2.43;;;4.10;96.30;;;;;;5018216;28;20230;-69
2022/04/17 03:25:27;;;;;;;4.30;2.57;;;4.10;96.90;;;;;;5018604;28;20634;-69
2022/04/17 03:27:54;;;;;;;4.90;2.73;;;4.10;97.50;;;;;;5018216;28;20200;-69
2022/04/17 03:30:21;;;;;;;4.77;2.70;;;4.10;98.20;;;;;;5018538;28;20298;-69
2022/04/17 03:32:49;;;;;;;3.73;2.70;;;4.10;98.70;;;;;;5018947;28;20235;-68
2022/04/17 03:35:19;;;;;;;4.67;2.77;;;4.10;99.50;;;;;;5018472;28;20579;-69
2022/04/17 03:37:46;;;;;;;4.73;2.57;;;4.10;99.90;;;;;;5018179;28;20265;-69
2022/04/17 03:40:15;;;;;;;3.47;2.63;;;4.10;99.90;;;;;;5018142;28;20239;-68
2022/04/17 03:42:42;;;;;;;4.90;2.70;;;4.00;99.90;;;;;;5017811;28;20204;-68
2022/04/17 03:45:11;;;;;;;4.77;2.50;;;4.10;99.90;;;;;;5017666;28;20682;-69
2022/04/17 03:47:38;;;;;;;6.33;3.33;;;4.10;99.90;;;;;;5017380;28;20204;-67
2022/04/17 03:50:07;;;;;;;2.73;2.07;;;4.10;99.90;;;;;;5017894;28;20246;-68
2022/04/17 03:52:40;;;;;;;4.97;2.50;;;4.10;99.90;;;;;;5018561;28;20295;-68
2022/04/17 03:55:07;;;;;;;5.13;2.83;;;4.10;99.90;;;;;;5017746;28;20653;-69
2022/04/17 03:57:34;;;;;;;5.10;2.80;;;4.10;99.90;;;;;;5016625;28;20255;-68
2022/04/17 04:00:02;;;;;;;5.67;2.83;;;4.10;99.90;;;;;;5017755;28;20203;-69
2022/04/17 04:02:29;;;;;;;3.77;2.80;;;4.20;99.90;;;;;;5017502;28;20207;-68
2022/04/17 04:04:57;;;;;;;8.67;3.00;;;4.20;99.90;;;;;;5017053;28;20203;-69
2022/04/17 04:07:24;;;;;;;6.30;2.73;;;4.30;99.90;;;;;;5017338;28;20286;-68
2022/04/17 04:09:52;;;;;;;3.50;2.50;;;4.30;99.90;;;;;;5017845;28;20210;-69
2022/04/17 04:12:19;;;;;;;4.60;2.70;;;4.30;99.90;;;;;;5017833;28;20257;-68
2022/04/17 04:14:46;;;;;;;4.97;2.80;;;4.40;99.90;;;;;;5017897;28;20287;-69
2022/04/17 04:17:13;;;;;;;3.33;2.63;;;4.40;99.90;;;;;;5017862;28;20735;-68
2022/04/17 04:19:40;;;;;;;5.67;3.10;;;4.40;99.90;;;;;;5017527;28;20307;-69
2022/04/17 04:22:07;;;;;;;5.77;3.00;;;4.50;99.90;;;;;;5017396;28;20702;-68
2022/04/17 04:24:34;;;;;;;4.40;2.70;;;4.50;99.90;;;;;;5017164;28;20552;-68
2022/04/17 04:29:47;;;;;;;4.10;2.83;;;4.50;99.90;;;;;;5017012;28;20191;-69
2022/04/17 04:32:14;;;;;;;4.97;2.87;;;4.50;99.90;;;;;;5017032;28;20286;-69
2022/04/17 04:34:41;;;;;;;4.57;2.77;;;4.50;99.90;;;;;;5017095;28;20357;-69
2022/04/17 04:37:08;;;;;;;4.23;2.60;;;4.50;99.90;;;;;;5016850;28;20213;-68
2022/04/17 04:39:35;;;;;;;5.80;2.93;;;4.50;99.90;;;;;;5017127;28;20310;-68
2022/04/17 04:42:03;;;;;;;5.63;2.90;;;4.50;99.90;;;;;;5017153;28;20230;-68
2022/04/17 04:44:30;;;;;;;4.43;2.80;;;4.50;99.90;;;;;;5017113;28;20242;-69
2022/04/17 04:46:56;;;;;;;3.27;2.50;;;4.50;99.90;;;;;;5017105;28;20214;-69
2022/04/17 04:49:32;;;;;;;4.23;2.73;;;4.60;99.90;;;;;;5016647;28;20196;-68
2022/04/17 04:52:00;;;;;;;4.07;2.73;;;4.70;99.90;;;;;;5016307;28;20192;-68
2022/04/17 04:54:27;;;;;;;6.00;3.10;;;4.70;99.90;;;;;;5016561;28;20636;-69
2022/04/17 04:56:54;;;;;;;3.37;2.57;;;4.80;99.90;;;;;;5016138;28;20250;-68
2022/04/17 04:59:23;;;;;;;4.43;2.47;;;4.80;99.90;;;;;;5017250;28;20313;-68
2022/04/17 05:01:50;;;;;;;4.27;2.97;;;4.80;99.90;;;;;;5017002;28;20208;-68
2022/04/17 05:04:17;;;;;;;6.43;3.10;;;4.90;99.90;;;;;;5016845;28;20661;-69
2022/04/17 05:06:44;;;;;;;5.60;3.33;;;5.00;99.90;;;;;;5016730;28;20238;-68
2022/04/17 05:09:12;;;;;;;6.30;3.07;;;5.00;99.90;;;;;;5015582;28;20637;-68
2022/04/17 05:11:39;;;;;;;4.77;2.63;;;5.00;99.90;;;;;;5016073;28;20199;-69
2022/04/17 05:14:09;;;;;;;4.93;3.23;;;4.90;99.90;;;;;;5016644;28;20599;-68
2022/04/17 05:16:37;;;;;;;7.70;3.10;;;4.90;99.90;;;;;;5016653;28;20644;-69
2022/04/17 05:19:20;;;;;;;5.03;3.10;;;4.90;99.90;;;;;;5015895;28;20227;-68
2022/04/17 05:21:48;;;;;;;3.70;2.87;;;4.90;99.90;;;;;;5016738;28;20696;-68
2022/04/17 05:24:15;;;;;;;4.90;3.20;;;4.90;99.90;;;;;;5016666;28;20203;-68
2022/04/17 05:26:42;;;;;;;4.57;3.10;;;4.90;99.90;;;;;;5016217;28;20298;-68
2022/04/17 05:29:09;;;;;;;7.03;3.30;;;4.80;99.90;;;;;;5015788;28;20404;-69
2022/04/17 05:31:38;;;;;;;4.53;3.63;;;4.80;99.90;;;;;;5015815;28;20214;-69
2022/04/17 05:34:05;;;;;;;4.73;3.30;;;4.90;99.90;;;;;;5015487;28;20294;-68
2022/04/17 05:36:32;;;;;;;5.80;3.27;;;4.90;99.90;;;;;;5016295;28;20568;-68
2022/04/17 05:38:58;;;;;;;5.20;3.23;;;5.00;99.90;;;;;;5015569;28;20226;-68
2022/04/17 05:41:27;;;;;;;4.90;3.90;;;5.10;99.90;;;;;;5016184;28;20654;-68
2022/04/17 05:43:57;;;;;;;4.27;3.13;;;5.20;99.90;;;;;;5015971;28;20252;-69
2022/04/17 05:46:24;;;;;;;4.20;2.90;;;5.30;99.90;;;;;;5015859;28;20700;-69
2022/04/17 05:48:52;;;;;;;6.17;3.10;;;5.50;99.90;;;;;;5015926;28;20231;-69
2022/04/17 05:51:20;;;;;;;4.33;3.20;;;5.60;99.90;;;;;;5015126;28;20231;-68
2022/04/17 05:53:46;;;;;;;5.70;3.53;;;5.60;99.90;;;;;;5015220;28;20213;-69
2022/04/17 05:56:13;;;;;;;5.13;3.37;;;5.70;99.90;;;;;;5015198;28;20250;-69
2022/04/17 05:58:40;;;;;;;4.90;3.00;;;5.70;99.90;;;;;;5015033;28;20613;-69
2022/04/17 06:01:07;;;;;;;6.47;3.20;;;5.70;99.90;;;;;;5015981;28;20204;-69
2022/04/17 06:03:34;;;;;;;5.10;3.30;;;5.70;99.90;;;;;;5015366;28;20241;-68
2022/04/17 06:06:02;;;;;;;6.50;3.30;;;5.80;99.90;;;;;;5015626;28;20203;-69
2022/04/17 06:08:29;;;;;;;7.80;3.70;;;5.70;99.90;;;;;;5015765;28;20675;-68
2022/04/17 06:10:57;;;;;;;7.00;3.77;;;5.80;99.90;;;;;;5015345;28;20636;-68
2022/04/17 06:13:24;;;;;;;4.13;3.40;;;5.80;99.90;;;;;;5015416;28;20250;-69
2022/04/17 06:15:51;;;;;;;6.83;4.70;;;5.90;99.90;;;;;;5014994;28;20214;-68
2022/04/17 06:18:18;;;;;;;7.43;5.57;;;5.90;99.90;;;;;;5015156;28;20575;-69
2022/04/17 06:20:44;;;;;;;9.40;5.73;;;5.90;99.90;;;;;;5014133;28;20229;-69
2022/04/17 06:23:13;;;;;;;9.93;5.20;;;6.00;99.90;;;;;;5015154;28;20275;-69
2022/04/17 06:25:41;;;;;;;8.47;4.37;;;6.20;99.90;;;;;;5015206;28;20679;-68
2022/04/17 06:28:08;;;;;;;6.47;4.57;;;6.20;99.90;;;;;;5014384;28;20227;-68
2022/04/17 06:30:35;;;;;;;5.77;3.70;;;6.30;99.90;;;;;;5014830;28;20242;-69
2022/04/17 06:33:02;;;;;;;5.20;3.53;;;6.30;99.90;;;;;;5015210;28;20239;-68
2022/04/17 06:35:29;;;;;;;7.00;4.13;;;6.40;99.90;;;;;;5014996;28;20209;-69
2022/04/17 06:37:57;;;;;;;6.30;4.17;;;6.60;99.90;;;;;;5015050;28;20218;-68
2022/04/17 06:40:27;;;;;;;6.17;4.50;;;6.70;99.90;;;;;;5015438;28;20747;-69
2022/04/17 06:42:56;;;;;;;6.60;3.93;;;6.90;99.90;;;;;;5015711;28;20209;-68
2022/04/17 06:45:23;;;;;;;8.13;4.17;;;7.10;99.90;;;;;;5014786;28;20207;-69
2022/04/17 06:47:50;;;;;;;7.37;4.20;;;7.20;99.90;;;;;;5019343;28;20231;-69
2022/04/17 06:50:18;;;;;;;6.43;4.33;;;7.40;99.90;;;;;;5019380;28;20203;-68
2022/04/17 06:52:45;;;;;;;6.67;4.27;;;7.50;99.90;;;;;;5019570;28;20233;-69
2022/04/17 06:55:12;;;;;;;8.97;4.80;;;7.60;99.90;;;;;;5019469;28;20316;-69
2022/04/17 06:57:46;;;;;;;4.73;3.60;;;7.60;99.90;;;;;;5019164;28;20207;-69
2022/04/17 07:00:14;;;;;;;5.60;3.70;;;7.60;99.90;;;;;;5019205;28;20208;-68
2022/04/17 07:02:42;;;;;;;6.87;3.80;;;7.60;99.90;;;;;;5018332;28;20219;-69
2022/04/17 07:05:09;;;;;;;7.47;4.17;;;7.70;99.90;;;;;;5018816;28;20326;-68
2022/04/17 07:07:36;;;;;;;8.50;4.93;;;7.80;99.90;;;;;;5018501;28;20200;-69
2022/04/17 07:10:04;;;;;;;6.63;4.80;;;7.70;99.90;;;;;;5018762;28;20398;-70
2022/04/17 07:12:31;;;;;;;5.80;4.60;;;7.70;99.90;;;;;;5018362;28;20203;-69
2022/04/17 07:15:00;;;;;;;6.37;4.03;;;7.80;99.90;;;;;;5019075;28;20684;-69
2022/04/17 07:17:34;;;;;;;5.50;3.70;;;7.80;99.90;;;;;;5019196;28;20203;-69
2022/04/17 07:20:02;;;;;;;6.97;4.17;;;7.80;99.90;;;;;;5022406;28;20262;-70
2022/04/17 07:22:29;;;;;;;3.80;3.10;;;7.90;99.90;;;;;;5018661;28;20227;-70
2022/04/17 07:24:57;;;;;;;6.37;3.67;;;8.00;99.90;;;;;;5018669;28;20687;-68
2022/04/17 07:27:25;;;;;;;6.17;4.30;;;8.00;99.90;;;;;;5018941;28;20637;-69
2022/04/17 07:29:52;;;;;;;8.17;4.00;;;8.00;99.90;;;;;;5018788;28;20211;-70
2022/04/17 07:32:20;;;;;;;6.13;4.10;;;8.20;99.90;;;;;;5018649;28;20234;-69
2022/04/17 07:34:47;;;;;;;6.03;3.93;;;8.30;99.90;;;;;;5018231;28;20234;-69
2022/04/17 07:37:24;;;;;;;9.57;3.67;;;8.50;99.80;;;;;;5018323;28;20669;-70
2022/04/17 07:39:51;;;;;;;4.70;3.37;;;8.70;99.40;;;;;;5018115;28;20296;-69
2022/04/17 07:42:19;;;;;;;4.00;3.60;;;8.90;98.40;;;;;;5016463;28;20268;-69
2022/04/17 07:44:46;;;;;;;6.47;3.60;;;8.90;97.70;;;;;;5017184;28;20207;-69
2022/04/17 07:47:13;;;;;;;6.27;4.10;;;9.00;97.50;;;;;;5016997;28;20203;-69
2022/04/17 07:49:41;;;;;;;4.40;3.40;;;9.00;97.00;;;;;;5015856;28;20547;-69
2022/04/17 07:52:09;;;;;;;5.53;3.60;;;9.00;96.90;;;;;;5015708;28;20295;-69
2022/04/17 07:54:36;;;;;;;6.73;4.13;;;9.10;97.00;;;;;;5016278;28;20306;-68
2022/04/17 07:57:03;;;;;;;6.73;3.33;;;9.30;96.60;;;;;;5016244;28;20643;-69
2022/04/17 07:59:30;;;;;;;4.70;3.50;;;9.40;96.30;;;;;;5015999;28;20266;-70
2022/04/17 08:02:01;;;;;;;5.57;3.87;;;9.60;95.90;;;;;;5016695;28;20207;-69
2022/04/17 08:04:28;;;;;;;4.50;2.83;;;9.80;95.40;;;;;;5016887;28;20234;-69
2022/04/17 08:06:56;;;;;;;4.17;2.83;;;9.80;94.70;;;;;;5016461;28;20283;-69
2022/04/17 08:09:23;;;;;;;5.57;3.03;;;9.90;94.10;;;;;;5016196;28;20222;-69
2022/04/17 08:11:52;;;;;;;3.33;3.03;;;10.00;93.50;;;;;;5015921;28;20290;-69
2022/04/17 08:14:19;;;;;;;6.97;4.23;;;10.20;93.20;;;;;;5015941;28;20262;-69
2022/04/17 08:16:46;;;;;;;5.13;3.70;;;10.30;92.80;;;;;;5016668;28;20637;-69
2022/04/17 08:19:12;;;;;;;4.90;3.13;;;10.50;92.30;;;;;;5016429;28;20317;-69
2022/04/17 08:21:40;;;;;;;4.67;4.20;;;10.70;91.40;;;;;;5016265;28;20302;-74
2022/04/17 08:24:08;;;;;;;4.80;3.60;;;10.70;90.50;;;;;;5016534;28;20212;-69
2022/04/17 08:26:35;;;;;;;5.27;3.27;;;10.80;90.30;;;;;;5016602;28;20214;-69
2022/04/17 08:29:02;;;;;;;4.43;3.20;;;10.90;89.70;;;;;;5015479;28;20229;-68
2022/04/17 08:31:29;;;;;;;4.97;3.33;;;11.10;89.60;;;;;;5015038;28;20294;-69
2022/04/17 08:33:56;;;;;;;5.00;3.77;;;11.20;86.90;;;;;;5016182;28;20571;-69
2022/04/17 08:36:22;;;;;;;6.07;2.93;;;11.20;85.60;;;;;;5016344;28;20242;-70
2022/04/17 08:38:49;;;;;;;4.70;3.37;;;11.30;85.60;;;;;;5016327;28;20743;-70
2022/04/17 08:41:20;;;;;;;3.17;2.83;;;11.50;84.90;;;;;;4978565;28;1093786;-69
2022/04/17 08:43:47;;;;;;;3.60;2.70;;;11.60;83.40;;;;;;5016632;28;20278;-69
2022/04/17 08:46:14;;;;;;;4.83;3.00;;;11.70;81.90;;;;;;5016733;28;20210;-69
2022/04/17 08:48:41;;;;;;;4.17;2.90;;;11.90;80.10;;;;;;5016960;28;20203;-69
2022/04/17 08:51:08;;;;;;;6.13;2.60;;;12.20;78.90;;;;;;5016591;28;20257;-69
2022/04/17 08:53:36;;;;;;;4.00;2.90;;;12.30;77.10;;;;;;5016769;28;20204;-68
2022/04/17 08:56:04;;;;;;;4.33;2.97;;;12.50;76.00;;;;;;5016878;28;20319;-69
2022/04/17 08:58:34;;;;;;;4.00;2.73;;;12.60;74.80;;;;;;5017090;28;20724;-69
2022/04/17 09:01:01;;;;;;;4.27;3.10;;;12.70;73.50;;;;;;5016666;28;20199;-69
2022/04/17 09:03:28;;;;;;;4.50;2.87;;;12.70;72.60;;;;;;5025055;28;20270;-70
2022/04/17 09:05:56;;;;;;;4.30;3.30;;;12.70;71.40;;;;;;5016165;28;20201;-69
2022/04/17 09:08:23;;;;;;;4.40;2.70;;;12.80;69.90;;;;;;5014956;28;20253;-71
2022/04/17 09:10:55;;;;;;;4.67;3.13;;;12.90;70.70;;;;;;5016569;28;20222;-70
2022/04/17 09:13:30;;;;;;;3.73;2.80;;;13.20;69.90;;;;;;5016249;28;20203;-70
2022/04/17 09:15:58;;;;;;;4.10;3.13;;;13.40;68.00;;;;;;5015448;28;20615;-69
2022/04/17 09:18:28;;;;;;;4.07;2.80;;;13.60;66.10;;;;;;5017081;28;20207;-69
2022/04/17 09:20:56;;;;;;;3.03;2.63;;;13.80;64.10;;;;;;5016087;28;20231;-69
2022/04/17 09:23:36;;;;;;;3.67;3.00;;;14.00;63.20;;;;;;5016150;28;20594;-69
2022/04/17 09:26:04;;;;;;;5.37;3.10;;;14.20;61.60;;;;;;5016546;28;20200;-69
2022/04/17 09:28:32;;;;;;;3.20;2.90;;;14.40;61.40;;;;;;5016006;28;20624;-69
2022/04/17 09:31:02;;;;;;;3.77;2.57;;;14.70;61.20;;;;;;5015967;28;20590;-69
2022/04/17 09:33:37;;;;;;;2.63;2.23;;;14.90;60.30;;;;;;5016175;28;20195;-69
2022/04/17 09:36:05;;;;;;;3.17;2.87;;;15.20;58.60;;;;;;5016298;28;20207;-69
2022/04/17 09:38:33;;;;;;;3.53;2.67;;;15.30;56.30;;;;;;5015624;28;20242;-70
2022/04/17 09:41:07;;;;;;;3.83;2.47;;;15.30;55.30;;;;;;5015950;28;20720;-69
2022/04/17 09:43:35;;;;;;;3.67;2.40;;;15.40;55.70;;;;;;5016395;28;20207;-69
2022/04/17 09:46:04;;;;;;;2.70;2.50;;;15.60;55.20;;;;;;5015685;28;20199;-69
2022/04/17 09:48:33;;;;;;;2.40;2.20;;;15.70;53.40;;;;;;5016165;28;20214;-68
2022/04/17 09:51:00;;;;;;;2.30;2.10;;;15.80;53.10;;;;;;5015926;28;20263;-69
2022/04/17 09:53:35;;;;;;;2.20;1.90;;;15.90;52.40;;;;;;5015341;28;20299;-69
2022/04/17 09:56:09;;;;;;;2.30;2.07;;;16.10;52.10;;;;;;5015855;28;20264;-70
2022/04/17 09:58:48;;;;;;;5.67;2.30;;;16.20;51.00;;;;;;5016088;28;20210;-69
2022/04/17 10:01:18;;;;;;;2.93;2.40;;;16.20;51.00;;;;;;5016550;28;20271;-69
2022/04/17 10:03:46;;;;;;;2.80;2.50;;;16.30;51.40;;;;;;5015946;28;20211;-69
2022/04/17 10:06:14;;;;;;;3.70;2.90;;;16.50;51.40;;;;;;5014840;28;20684;-69
2022/04/17 10:08:44;;;;;;;3.13;2.60;;;16.60;50.40;;;;;;5015254;28;20325;-70
2022/04/17 10:11:12;;;;;;;2.40;2.20;;;16.70;49.60;;;;;;5015814;28;20187;-69
2022/04/17 10:13:41;;;;;;;4.30;2.60;;;16.60;50.20;;;;;;5016145;28;20294;-69
2022/04/17 10:16:09;;;;;;;2.57;2.37;;;16.90;50.30;;;;;;5014704;28;20199;-69
2022/04/17 10:18:41;;;;;;;2.40;1.80;;;17.00;49.80;;;;;;5014956;28;20211;-71
2022/04/17 10:21:09;;;;;;;3.17;2.27;;;16.90;48.60;;;;;;5015335;28;20314;-70
2022/04/17 10:23:42;;;;;;;2.35;2.15;;;17.00;47.60;;;;;;5015698;28;20569;-70
2022/04/17 10:26:12;;;;;;;2.72;2.20;;;17.00;46.90;;;;;;5014922;28;20187;-69
2022/04/17 10:28:44;;;;;;;2.20;1.97;;;16.90;46.90;;;;;;5015763;28;20211;-69
2022/04/17 10:31:17;;;;;;;1.53;1.43;;;16.50;46.00;;;;;;5015609;28;20294;-69
2022/04/17 10:34:13;;;;;;;1.80;1.60;;;16.60;45.80;;;;;;5014932;28;20358;-69
2022/04/17 10:37:00;;;;;;;1.23;1.13;;;16.60;45.70;;;;;;5015373;28;20191;-70
2022/04/17 10:39:33;;;;;;;1.50;1.40;;;16.80;44.60;;;;;;4996719;28;20266;-70
2022/04/17 10:42:00;;;;;;;1.83;1.20;;;16.80;43.40;;;;;;5015873;28;20653;-70
2022/04/17 10:44:29;;;;;;;1.80;1.60;;;16.60;42.90;;;;;;5015639;28;20199;-69
2022/04/17 10:46:57;;;;;;;1.77;1.60;;;16.70;43.70;;;;;;5015397;28;20214;-70
2022/04/17 10:49:29;;;;;;;2.35;1.92;;;16.90;42.90;;;;;;5015383;28;20258;-69
2022/04/17 10:51:58;;;;;;;2.20;1.80;;;17.00;43.30;;;;;;5015183;28;20295;-69
2022/04/17 10:54:25;;;;;;;1.70;1.52;;;16.90;42.60;;;;;;5015192;28;20299;-70
2022/04/17 10:57:00;;;;;;;1.85;1.40;;;16.80;43.10;;;;;;5014733;28;20234;-69
2022/04/17 10:59:32;;;;;;;2.95;2.15;;;17.00;43.50;;;;;;5014482;28;20226;-70
2022/04/17 11:02:22;;;;;;;1.65;1.55;;;17.20;42.60;;;;;;5015189;28;20632;-70
2022/04/17 11:04:53;;;;;;;4.47;2.77;;;17.20;42.50;;;;;;5015615;28;20284;-69
2022/04/17 11:07:27;;;;;;;2.27;1.80;;;17.10;42.30;;;;;;5015686;28;20196;-70
2022/04/17 11:10:19;;;;;;;1.93;1.67;;;16.90;42.50;;;;;;5015748;28;20208;-69
2022/04/17 11:12:48;;;;;;;1.73;1.60;;;16.70;42.80;;;;;;5014969;28;20223;-69
2022/04/17 11:15:28;;;;;;;2.10;1.57;;;16.70;43.20;;;;;;5015192;28;20242;-69
2022/04/17 11:18:01;;;;;;;2.23;1.70;;;16.90;43.00;;;;;;5015559;28;20191;-69
2022/04/17 11:20:30;;;;;;;1.90;1.60;;;17.10;43.00;;;;;;5015486;28;20278;-70
2022/04/17 11:22:58;;;;;;;2.27;1.67;;;17.10;42.50;;;;;;5014588;28;20212;-69
2022/04/17 11:25:29;;;;;;;2.33;1.70;;;16.90;42.30;;;;;;5015634;28;20210;-69
2022/04/17 11:28:02;;;;;;;2.37;1.47;;;16.80;42.50;;;;;;5014958;28;20246;-69
2022/04/17 11:30:34;;;;;;;2.00;1.80;;;16.70;42.70;;;;;;4994438;28;20184;-69
2022/04/17 11:33:03;;;;;;;2.97;1.48;;;16.60;41.70;;;;;;4997321;28;20287;-70
2022/04/17 11:35:32;;;;;;;1.70;1.60;;;16.30;41.60;;;;;;4999328;28;20208;-69
2022/04/17 11:38:02;;;;;;;1.60;1.50;;;16.10;41.80;;;;;;4998621;28;20219;-69
2022/04/17 11:40:34;;;;;;;1.90;1.53;;;16.00;42.00;;;;;;4998785;28;20240;-69
2022/04/17 11:43:14;;;;;;;2.40;1.90;;;15.90;42.00;;;;;;4998956;28;20291;-69
2022/04/17 11:45:42;;;;;;;3.87;1.80;;;15.90;42.60;;;;;;4998249;28;20240;-69
2022/04/17 11:48:10;;;;;;;2.00;1.60;;;16.10;42.40;;;;;;4998288;28;20215;-69
2022/04/17 11:50:40;;;;;;;1.80;1.57;;;16.40;42.40;;;;;;4998618;28;20211;-70
2022/04/17 11:53:10;;;;;;;1.67;1.57;;;16.50;42.00;;;;;;4998487;28;20227;-69
2022/04/17 11:55:38;;;;;;;1.80;1.50;;;16.50;41.80;;;;;;4999159;28;20287;-69
2022/04/17 11:58:09;;;;;;;1.70;1.60;;;16.50;41.60;;;;;;4998975;28;20208;-69
2022/04/17 12:00:36;;;;;;;1.50;1.40;;;16.40;41.20;;;;;;5017118;28;20218;-70
2022/04/17 12:03:05;;;;;;;1.40;1.30;;;16.30;41.50;;;;;;5018321;28;20287;-69
2022/04/17 12:05:34;;;;;;;1.60;1.30;;;16.40;41.40;;;;;;5017842;28;20210;-70
2022/04/17 12:08:13;;;;;;;1.97;1.53;;;16.60;40.50;;;;;;5017641;28;20211;-69
2022/04/17 12:10:42;;;;;;;2.17;1.63;;;16.80;39.50;;;;;;5017133;28;20187;-68
2022/04/17 12:13:17;;;;;;;1.30;1.20;;;17.20;38.90;;;;;;5017676;28;20211;-69
2022/04/17 12:15:44;;;;;;;3.08;1.45;;;17.40;38.20;;;;;;5017887;28;20277;-69
2022/04/17 12:18:11;;;;;;;2.30;1.30;;;17.40;38.30;;;;;;5017606;28;20238;-69
2022/04/17 12:20:38;;;;;;;2.80;1.88;;;17.40;38.70;;;;;;5017557;28;20310;-69
2022/04/17 12:23:08;;;;;;;2.35;1.40;;;17.40;39.30;;;;;;5016635;28;20213;-71
2022/04/17 12:25:36;;;;;;;1.58;1.48;;;17.20;38.40;;;;;;5016524;28;20207;-69
2022/04/17 12:28:04;;;;;;;4.65;1.80;;;17.00;38.70;;;;;;5017005;28;20212;-68
2022/04/17 12:30:31;;;;;;;1.90;1.30;;;17.10;39.10;;;;;;5013751;28;20262;-70
2022/04/17 12:33:00;;;;;;;1.35;1.23;;;17.40;39.00;;;;;;5017605;28;20207;-70
2022/04/17 12:35:29;;;;;;;1.55;1.38;;;17.50;38.50;;;;;;5017432;28;20218;-70
2022/04/17 12:38:04;;;;;;;2.13;1.30;;;17.70;38.40;;;;;;5016705;28;20203;-70
2022/04/17 12:40:42;;;;;;;1.92;1.48;;;17.80;38.30;;;;;;5017105;28;20231;-69
2022/04/17 12:43:17;;;;;;;2.07;1.60;;;17.80;38.40;;;;;;5016707;28;20231;-69
2022/04/17 12:45:58;;;;;;;1.77;1.50;;;17.70;38.70;;;;;;5016891;28;20253;-70
2022/04/17 12:48:27;;;;;;;2.08;1.30;;;17.50;38.20;;;;;;5017011;28;20245;-70
2022/04/17 12:51:02;;;;;;;1.63;1.40;;;17.30;38.10;;;;;;5016776;28;20238;-69
2022/04/17 12:53:38;;;;;;;4.30;1.40;;;17.20;38.00;;;;;;5016677;28;20188;-69
2022/04/17 12:56:08;;;;;;;2.47;1.45;;;16.90;38.30;;;;;;5017015;28;20667;-69
2022/04/17 12:58:49;;;;;;;1.37;1.27;;;16.60;39.30;;;;;;5016298;28;20399;-69
2022/04/17 13:01:21;;;;;;;2.13;1.42;;;16.20;39.00;;;;;;5017017;28;20683;-69
2022/04/17 13:03:49;;;;;;;3.70;1.60;;;16.00;39.30;;;;;;5016512;28;20203;-69
2022/04/17 13:06:20;;;;;;;1.87;1.30;;;15.80;39.20;;;;;;5016962;28;20213;-69
2022/04/17 13:09:12;;;;;;;1.73;1.27;;;15.50;39.30;;;;;;5016674;28;20680;-69